Airfield :
LOGIN :

Register | Disclaimer

   EN    FR    IT 

 










Legend :    VFR   Marginal VFR   IFR   Intensive IFR   Very Intensive IFR
Visi :
Ceiling :
>= 8 km
>= 3000ft
5 to 8 km
1000 to 3000 ft
1500m to 5 km
500 to 1000 ft
800 to 1500m
200 to 500 ft
< 800m
< 200 ft
Symbols :   Thunderstorms  Fog  Heavy snow  Heavy precipitations  Wind > 20 kt
SIGMETs :     Misc.  Thunderstorms  Icing  Turbulence  Mountain Waves  Volcanic Ashes







- Airport Elevation : 465 ft
- IATA code : OMR


LROD - Oradea International

CURRENT METAR :
  • 230230Z AUTO 18004KT 8000 FEW050/// BKN065/// 10/09 Q1022

EXPIRED METARs :
  • 230200Z AUTO 19005KT 7000 SCT060/// BKN085/// BKN180/// 10/09 Q1022
  • 230130Z AUTO 18006KT 7000 BKN050/// 10/09 Q1022
  • 230100Z AUTO 19007KT 7000 SCT050/// BKN090/// BKN160/// 10/09 Q1022
  • 230030Z AUTO 20004KT 8000 BKN047/// 10/09 Q1022
  • 230000Z AUTO 15003KT 9000 SCT045/// BKN095/// 10/09 Q1023

Expired Forecast.
No reported NOTAMs for that airfield.



MET'MAP, your aeronautical weather chart ! - Copyright ORBIFLY December 2007 - Disclaimer

ORBIFLY MET'MAP TEAM :

Programming & Development : Alexandra Zaïnal
Concept & Development : Baudouin d'Aumeries
Co-Development & Prog : Marc-Olivier Méhu
Technical & hardware support : Manuel Goepfert

Contact : metmap@orbifly.com




SOURCES & CREDITS :

   NOAA